createdAt,value
2022-08-11T00:00:51.869Z,100
2022-08-11T00:05:50.215Z,100
2022-08-11T00:10:48.358Z,100
2022-08-11T00:15:48.633Z,100
2022-08-11T00:20:44.415Z,100
2022-08-11T00:25:42.382Z,100
2022-08-11T00:30:40.536Z,100
2022-08-11T00:35:50.494Z,100
2022-08-11T00:40:36.742Z,100
2022-08-11T00:45:35.102Z,100
2022-08-11T00:50:33.245Z,100
2022-08-11T00:55:31.347Z,100
2022-08-11T01:00:29.495Z,100
2022-08-11T01:05:27.677Z,100
2022-08-11T01:10:25.761Z,100
2022-08-11T01:15:23.988Z,100
2022-08-11T01:20:39.796Z,100
2022-08-11T01:25:20.335Z,100
2022-08-11T01:30:18.241Z,100
2022-08-11T01:35:16.345Z,100
2022-08-11T01:40:14.343Z,100
2022-08-11T01:45:12.308Z,100
2022-08-11T01:50:10.734Z,100
2022-08-11T01:55:08.390Z,100
2022-08-11T02:00:06.483Z,100
2022-08-11T02:05:04.314Z,100
2022-08-11T02:10:02.303Z,100
2022-08-11T02:15:04.833Z,100
2022-08-11T02:19:58.100Z,100
2022-08-11T02:24:56.153Z,100
2022-08-11T02:29:54.216Z,100
2022-08-11T02:34:59.726Z,100
2022-08-11T02:39:50.789Z,100
2022-08-11T02:44:48.899Z,100
2022-08-11T02:49:47.009Z,100
2022-08-11T02:54:45.266Z,100
2022-08-11T02:59:43.205Z,100
2022-08-11T03:04:41.364Z,100
2022-08-11T03:09:39.412Z,100
2022-08-11T03:14:37.652Z,100
2022-08-11T03:19:36.016Z,100
2022-08-11T03:24:34.151Z,100
2022-08-11T03:29:32.257Z,100
2022-08-11T03:34:30.315Z,100
2022-08-11T03:39:28.415Z,100
2022-08-11T03:44:26.796Z,100
2022-08-11T03:49:25.759Z,100
2022-08-11T03:54:24.220Z,100
2022-08-11T03:59:23.223Z,100
2022-08-11T04:04:21.956Z,100
2022-08-11T04:09:20.253Z,100
2022-08-11T04:14:19.854Z,100
2022-08-11T04:19:21.341Z,80.4
2022-08-11T04:24:37.283Z,71.9
2022-08-11T04:29:20.097Z,69.3
2022-08-11T04:34:18.945Z,65.2
2022-08-11T04:39:17.668Z,59.2
2022-08-11T04:44:15.367Z,61.1
2022-08-11T04:49:13.796Z,57.1
2022-08-11T04:54:11.826Z,59.8
2022-08-11T04:59:10.025Z,61.7
2022-08-11T05:04:07.172Z,62.1
2022-08-11T05:09:06.002Z,61.1
2022-08-11T05:14:04.794Z,60.4
2022-08-11T05:19:03.488Z,58.5
2022-08-11T05:24:02.206Z,58.9
2022-08-11T05:29:00.998Z,58.4
2022-08-11T05:33:59.131Z,54.6
2022-08-11T05:38:56.718Z,55.6
2022-08-11T05:44:21.249Z,53.6
2022-08-11T05:48:54.298Z,48.8
2022-08-11T05:53:53.007Z,48.8
2022-08-11T05:58:51.466Z,46.7
2022-08-11T06:03:57.629Z,44.5
2022-08-11T06:08:48.489Z,44
2022-08-11T06:13:46.888Z,43.6
2022-08-11T06:18:45.522Z,44.4
2022-08-11T06:23:44.643Z,43.4
2022-08-11T06:28:43.284Z,43.6
2022-08-11T06:33:41.233Z,41.9
2022-08-11T06:38:38.783Z,43.5
2022-08-11T06:43:36.929Z,42.6
2022-08-11T06:48:36.023Z,40.7
2022-08-11T06:53:34.159Z,40.5
2022-08-11T06:58:32.421Z,40.7
2022-08-11T07:03:31.221Z,41.1
2022-08-11T07:08:33.340Z,42.1
2022-08-11T07:13:38.137Z,40.4
2022-08-11T07:18:26.476Z,38.1
2022-08-11T07:23:24.207Z,38.2
2022-08-11T07:28:22.006Z,38
2022-08-11T07:34:06.040Z,37.5
2022-08-11T07:38:22.620Z,38.6
2022-08-11T07:43:15.615Z,35.7
2022-08-11T07:48:13.790Z,36.3
2022-08-11T07:53:09.933Z,40.4
2022-08-11T07:58:15.678Z,37.7
2022-08-11T08:03:09.987Z,34.9
2022-08-11T08:08:09.135Z,33.9
2022-08-11T08:13:07.102Z,34.5
2022-08-11T08:18:08.787Z,37.3
2022-08-11T08:23:03.097Z,34.8
2022-08-11T08:28:03.411Z,32.6
2022-08-11T08:33:00.788Z,37.8
2022-08-11T08:37:58.119Z,35.6
2022-08-11T08:42:51.016Z,45.3
2022-08-11T08:47:53.312Z,41.8
2022-08-11T08:52:55.470Z,31.3
2022-08-11T08:57:53.270Z,37.4
2022-08-11T09:02:52.908Z,33.6
2022-08-11T09:07:51.888Z,34.1
2022-08-11T09:12:47.172Z,33.3
2022-08-11T09:17:45.873Z,33.3
2022-08-11T09:22:42.320Z,36.3
2022-08-11T09:27:35.679Z,42
2022-08-11T09:32:38.943Z,34.8
2022-08-11T09:37:53.956Z,31.8
2022-08-11T09:42:36.977Z,37.5
2022-08-11T09:47:38.489Z,30.6
2022-08-11T09:52:37.167Z,30.9
2022-08-11T09:57:35.086Z,29.7
2022-08-11T10:02:27.727Z,40.8
2022-08-11T10:07:24.862Z,34.9
2022-08-11T10:12:27.407Z,30.5
2022-08-11T10:17:26.329Z,29.1
2022-08-11T10:22:24.261Z,29.5
2022-08-11T10:27:19.304Z,38.8
2022-08-11T10:32:15.055Z,34.7
2022-08-11T10:37:16.870Z,30.9
2022-08-11T10:42:25.756Z,31.2
2022-08-11T10:47:14.284Z,28.9
2022-08-11T10:52:12.884Z,28.7
2022-08-11T10:57:08.821Z,31.2
2022-08-11T11:02:07.272Z,30.8
2022-08-11T11:07:06.678Z,29.2
2022-08-11T11:12:04.625Z,28.3
2022-08-11T11:17:02.755Z,29.7
2022-08-11T11:22:01.040Z,27.3
2022-08-11T11:26:58.934Z,26.9
2022-08-11T11:31:56.426Z,29
2022-08-11T11:36:54.895Z,28.6
2022-08-11T11:41:53.460Z,28.6
2022-08-11T11:46:51.271Z,28.3
2022-08-11T11:51:49.867Z,27.4
2022-08-11T11:56:46.705Z,29.3
2022-08-11T12:01:50.172Z,27.6
2022-08-11T12:06:43.517Z,28.3
2022-08-11T12:11:40.850Z,28.6
2022-08-11T12:16:38.672Z,29
2022-08-11T12:21:37.324Z,31.1
2022-08-11T12:26:35.264Z,27.6
2022-08-11T12:31:32.566Z,29.4
2022-08-11T12:36:30.773Z,31.4
2022-08-11T12:41:28.182Z,31.1
2022-08-11T12:46:26.724Z,29.6
2022-08-11T12:51:24.945Z,27.5
2022-08-11T12:56:22.848Z,31.6
2022-08-11T13:01:19.026Z,33.6
2022-08-11T13:06:18.181Z,30.1
2022-08-11T13:11:17.077Z,31.9
2022-08-11T13:16:14.702Z,32.5
2022-08-11T13:21:12.009Z,31.7
2022-08-11T13:26:09.936Z,32.7
2022-08-11T13:31:09.398Z,31.7
2022-08-11T13:36:07.183Z,32
2022-08-11T13:41:04.783Z,30.7
2022-08-11T13:46:02.608Z,34.1
2022-08-11T13:51:00.960Z,31.3
2022-08-11T13:55:59.231Z,33.3
2022-08-11T14:00:57.455Z,35.4
2022-08-11T14:05:55.154Z,35.7
2022-08-11T14:10:51.869Z,36.1
2022-08-11T14:15:50.018Z,33.9
2022-08-11T14:20:47.566Z,37.6
2022-08-11T14:25:59.066Z,36.7
2022-08-11T14:30:43.512Z,38.2
2022-08-11T14:35:43.139Z,37.7
2022-08-11T14:40:39.223Z,41.5
2022-08-11T14:45:54.498Z,41.8
2022-08-11T14:50:36.421Z,41.1
2022-08-11T14:55:34.369Z,43.7
2022-08-11T15:00:32.558Z,42.5
2022-08-11T15:05:30.352Z,44.1
2022-08-11T15:10:28.684Z,44.7
2022-08-11T15:15:26.673Z,44.8
2022-08-11T15:20:24.903Z,46
2022-08-11T15:25:23.079Z,47.9
2022-08-11T15:30:30.036Z,48.2
2022-08-11T15:35:19.183Z,49.2
2022-08-11T15:40:28.849Z,48.9
2022-08-11T15:45:15.440Z,47.9
2022-08-11T15:50:17.560Z,47.5
2022-08-11T15:55:15.435Z,47.5
2022-08-11T16:00:13.398Z,48.7
2022-08-11T16:05:12.024Z,49.5
2022-08-11T16:10:10.141Z,47.7
2022-08-11T16:15:08.342Z,47.8
2022-08-11T16:20:06.279Z,50
2022-08-11T16:25:58.952Z,50.9
2022-08-11T16:30:01.819Z,52.6
2022-08-11T16:34:59.763Z,53.5
2022-08-11T16:39:58.100Z,54.7
2022-08-11T16:44:55.960Z,56.3
2022-08-11T16:49:54.106Z,57.6
2022-08-11T16:54:52.817Z,58.6
2022-08-11T16:59:52.751Z,59
2022-08-11T17:04:48.260Z,59.5
2022-08-11T17:09:46.168Z,58.8
2022-08-11T17:14:44.027Z,61.6
2022-08-11T17:20:39.303Z,64.9
2022-08-11T17:24:43.673Z,66.3
2022-08-11T17:29:53.431Z,69.4
2022-08-11T17:34:39.145Z,69.9
2022-08-11T17:39:37.191Z,73.2
2022-08-11T17:44:35.074Z,73.6
2022-08-11T17:49:32.902Z,73.8
2022-08-11T17:54:30.994Z,73.5
2022-08-11T17:59:32.336Z,73.5
2022-08-11T18:04:27.464Z,75.1
2022-08-11T18:09:25.845Z,76.7
2022-08-11T18:14:23.987Z,75.2
2022-08-11T18:19:22.215Z,72.6
2022-08-11T18:24:20.224Z,75.8
2022-08-11T18:29:18.324Z,74.9
2022-08-11T18:34:16.553Z,73.9
2022-08-11T18:39:14.358Z,74.7
2022-08-11T18:44:12.629Z,73.8
2022-08-11T18:49:15.053Z,74.1
2022-08-11T18:54:09.023Z,70.1
2022-08-11T18:59:07.271Z,73.5
2022-08-11T19:04:10.698Z,75.5
2022-08-11T19:09:03.385Z,78
2022-08-11T19:14:01.283Z,79.7
2022-08-11T19:18:59.565Z,81.8
2022-08-11T19:23:57.859Z,76.8
2022-08-11T19:28:56.489Z,73.2
2022-08-11T19:33:57.409Z,77.3
2022-08-11T19:38:53.104Z,74
2022-08-11T19:43:51.242Z,71
2022-08-11T19:48:49.877Z,67.6
2022-08-11T19:53:47.978Z,71.6
2022-08-11T19:58:46.044Z,72.2
2022-08-11T20:03:44.009Z,76.2
2022-08-11T20:08:41.994Z,75.4
2022-08-11T20:13:41.579Z,79.1
2022-08-11T20:18:38.141Z,79.6
2022-08-11T20:23:36.590Z,81.5
2022-08-11T20:28:34.639Z,79.7
2022-08-11T20:33:33.099Z,80.6
2022-08-11T20:38:30.965Z,81.7
2022-08-11T20:44:07.212Z,82.7
2022-08-11T20:48:26.794Z,83.8
2022-08-11T20:53:24.610Z,85.5
2022-08-11T20:58:25.924Z,86.3
2022-08-11T21:03:35.375Z,88.1
2022-08-11T21:08:18.423Z,88
2022-08-11T21:13:18.087Z,88.4
2022-08-11T21:18:27.562Z,89.3
2022-08-11T21:23:19.957Z,90.1
2022-08-11T21:28:10.880Z,91.1
2022-08-11T21:33:09.227Z,91.4
2022-08-11T21:38:07.364Z,86.1
2022-08-11T21:43:05.856Z,87.3
2022-08-11T21:48:04.220Z,88.1
2022-08-11T21:53:02.467Z,87.4
2022-08-11T21:58:00.825Z,85.8
2022-08-11T22:02:58.838Z,81.9
2022-08-11T22:07:57.287Z,83.9
2022-08-11T22:12:55.301Z,83.5
2022-08-11T22:17:57.835Z,81.8
2022-08-11T22:22:53.685Z,83.8
2022-08-11T22:27:50.440Z,85.4
2022-08-11T22:32:48.487Z,84.9
2022-08-11T22:37:46.815Z,87.3
2022-08-11T22:42:45.044Z,82.2
2022-08-11T22:47:43.296Z,85
2022-08-11T22:52:41.651Z,87.2
2022-08-11T22:57:39.148Z,86.7
2022-08-11T23:02:37.386Z,86.6
2022-08-11T23:07:50.637Z,87.7
2022-08-11T23:12:33.535Z,86.3
2022-08-11T23:17:31.751Z,88.9
2022-08-11T23:22:35.938Z,89.6
2022-08-11T23:27:28.077Z,89.4
2022-08-11T23:32:26.336Z,87.1
2022-08-11T23:37:24.640Z,87.4
2022-08-11T23:42:22.704Z,82.2
2022-08-11T23:47:20.724Z,81.4
2022-08-11T23:52:18.745Z,84
2022-08-11T23:57:16.940Z,82.5
